Terminal Aerodrome Forecast
Issued by NWS Wakefield, VA

Home | Current Version | Previous Version | Text Only | Print | Product List | Glossary On
Versions: 1 2 3 4 5 6 7 8 9 10 11 12 13 14 15 16
000
FTUS41 KAKQ 251740
TAFECG
TAF
KECG 251740Z 2518/2618 09007KT P6SM OVC080
     FM252000 10007KT P6SM -RA OVC025
     FM252200 11006KT 3SM -RA OVC015
     FM260000 07008KT 4SM -RA BR OVC006
     FM260600 03007KT P6SM -RA OVC008
     FM261000 02013KT 5SM -RA BR OVC008=

USA.gov is the U.S. government's official web portal to all federal, state and local government web resources and services.